This is the latest recevied weather packets stored in our database for station/object KM7BEO. If no packets are shown the sender has not sent any weather packets the latest 10 day(s).
| Time | Temp. | Humidity | Pressure | Rain* | Wind** | Luminosity | Snow |
|---|---|---|---|---|---|---|---|
| 1777571903 | 13.89° C | 80% | 1020.1 hPa | 0 mm | - | 473 W/m² | - |
| 1777571598 | 13.89° C | 81% | 1020.2 hPa | 0 mm | - | 363 W/m² | - |
| 1777571296 | 13.89° C | 81% | 1020.1 hPa | 0 mm | - | 474 W/m² | - |
| 1777570992 | 13.33° C | 82% | 1020.3 hPa | 0 mm | - | 483 W/m² | - |
| 1777570688 | 13.89° C | 82% | 1020.3 hPa | 0 mm | - | 373 W/m² | - |
| 1777570385 | 13.33° C | 83% | 1020.5 hPa | 0 mm | - | 401 W/m² | - |
| 1777570080 | 13.89° C | 82% | 1020.3 hPa | 0 mm | - | 335 W/m² | - |
| 1777569776 | 13.33° C | 83% | 1020.6 hPa | 0 mm | - | 347 W/m² | - |
| 1777569472 | 13.33° C | 83% | 1020.5 hPa | 0 mm | - | 342 W/m² | - |
| 1777569169 | 12.78° C | 84% | 1020.6 hPa | 0 mm | - | 351 W/m² | - |
| 1777568865 | 12.78° C | 85% | 1020.5 hPa | 0 mm | - | 345 W/m² | - |
| 1777568563 | 12.22° C | 85% | 1020.8 hPa | 0 mm | - | 319 W/m² | - |
| 1777568259 | 12.22° C | 84% | 1020.7 hPa | 0 mm | - | 260 W/m² | - |
| 1777567956 | 13.33° C | 81% | 1020.8 hPa | 0 mm | - | 269 W/m² | - |
| 1777567652 | 13.33° C | 82% | 1020.7 hPa | 0 mm | - | 281 W/m² | - |
| 1777567350 | 13.33° C | 82% | 1020.7 hPa | 0 mm | - | 308 W/m² | - |
| 1777567048 | 13.33° C | 83% | 1020.7 hPa | 0 mm | - | 301 W/m² | - |
| 1777566746 | 12.78° C | 84% | 1020.9 hPa | 0 mm | - | 304 W/m² | - |
| 1777566444 | 12.78° C | 84% | 1020.9 hPa | 0 mm | - | 285 W/m² | - |
| 1777566141 | 12.78° C | 84% | 1020.7 hPa | 0 mm | - | 317 W/m² | - |
| 1777565841 | 12.78° C | 84% | 1020.9 hPa | 0 mm | - | 298 W/m² | - |
| 1777565538 | 12.78° C | 84% | 1020.9 hPa | 0 mm | - | 290 W/m² | - |
| 1777565235 | 12.22° C | 85% | 1021.1 hPa | 0 mm | - | 296 W/m² | - |
| 1777564931 | 12.22° C | 85% | 1021.1 hPa | 0 mm | - | 291 W/m² | - |
| 1777564626 | 12.22° C | 85% | 1021.2 hPa | 0 mm | - | 280 W/m² | - |
* Rain latest hour (hover to see other rain measurements)
** Current wind speed in m/s (hover to see current wind gust speed)